createdAt,value
2018-10-07T17:49:20.634Z,90.40
2018-10-07T17:51:48.788Z,91.00
2018-10-07T17:54:17.125Z,90.60
2018-10-07T17:56:45.303Z,90.80
2018-10-07T17:59:13.441Z,90.40
2018-10-07T18:01:41.652Z,90.00
2018-10-07T18:04:09.830Z,90.10
2018-10-07T18:06:38.101Z,90.00
2018-10-07T18:09:07.280Z,88.70
2018-10-07T18:11:35.638Z,88.50
2018-10-07T18:14:03.869Z,88.20
2018-10-07T18:16:32.031Z,88.80
2018-10-07T18:19:00.353Z,88.20
2018-10-07T18:21:28.525Z,88.10
2018-10-07T18:23:56.761Z,88.30
2018-10-07T18:26:24.905Z,87.80
2018-10-07T18:28:53.117Z,88.00
2018-10-07T18:31:21.369Z,87.60
2018-10-07T18:33:49.581Z,87.60
2018-10-07T18:36:17.910Z,87.60
2018-10-07T18:38:46.082Z,87.30
2018-10-07T18:41:14.246Z,87.60
2018-10-07T18:43:42.455Z,87.80
2018-10-07T18:46:10.608Z,87.80
2018-10-07T18:48:39.299Z,87.80
2018-10-07T18:51:07.467Z,87.40
2018-10-07T18:53:36.148Z,87.30
2018-10-07T18:56:04.418Z,87.40
2018-10-07T18:58:32.989Z,86.50
2018-10-07T19:01:02.535Z,86.70
2018-10-07T19:03:30.806Z,87.20
2018-10-07T19:05:59.276Z,86.70
2018-10-07T19:08:27.555Z,87.10
2018-10-07T19:10:55.773Z,87.10
2018-10-07T19:13:24.022Z,86.70
2018-10-07T19:15:52.187Z,86.80
2018-10-07T19:18:20.537Z,87.10
2018-10-07T19:20:48.775Z,86.70
2018-10-07T19:23:16.989Z,86.80
2018-10-07T19:25:45.161Z,86.70
2018-10-07T19:28:13.412Z,87.20
2018-10-07T19:30:41.585Z,86.90
2018-10-07T19:33:09.789Z,86.60
2018-10-07T19:35:37.966Z,87.20
2018-10-07T19:38:06.131Z,87.10
2018-10-07T19:40:34.322Z,87.00
2018-10-07T19:43:02.598Z,87.20
2018-10-07T19:45:30.823Z,87.10
2018-10-07T19:47:59.045Z,87.20
2018-10-07T19:50:27.333Z,87.50
2018-10-07T19:52:55.606Z,87.00
2018-10-07T19:55:23.855Z,87.50
2018-10-07T19:57:52.058Z,87.50
2018-10-07T20:00:20.252Z,87.40
2018-10-07T20:02:48.440Z,86.90
2018-10-07T20:05:16.642Z,86.70
2018-10-07T20:07:44.805Z,86.40
2018-10-07T20:10:12.994Z,86.50
2018-10-07T20:12:41.154Z,87.60
2018-10-07T20:15:09.372Z,86.30
2018-10-07T20:17:37.551Z,85.90
2018-10-07T20:20:05.885Z,86.00
2018-10-07T20:22:34.048Z,85.80
2018-10-07T20:25:02.213Z,86.20
2018-10-07T20:27:30.442Z,86.30
2018-10-07T20:29:58.630Z,86.20
2018-10-07T20:32:26.827Z,86.70
2018-10-07T20:34:55.003Z,86.80
2018-10-07T20:37:23.936Z,87.20
2018-10-07T20:39:52.124Z,86.60
2018-10-07T20:42:20.297Z,86.10
2018-10-07T20:44:48.465Z,85.70
2018-10-07T20:47:16.642Z,86.20
2018-10-07T20:49:44.809Z,86.20
2018-10-07T20:52:13.049Z,86.50
2018-10-07T20:54:41.167Z,86.80
2018-10-07T20:57:09.406Z,87.00
2018-10-07T20:59:37.561Z,87.40
